Time,TemperatureF,DewpointF,PressureIn,WindDirection,WindDirectionDegrees,WindSpeedMPH,WindSpeedGustMPH,Humidity,HourlyPrecipIn,Conditions,Clouds,dailyrainin,SoftwareType,DateUTC
2013-01-27 00:10:00,15.8,2.0,30.21,NW,323,4.0,7.0,54,0.00,,,0.03,weatherlink.com 1.10,2013-01-27 05:10:00,
2013-01-27 00:26:00,15.6,2.0,30.22,NW,309,1.0,6.0,54,0.00,,,0.00,weatherlink.com 1.10,2013-01-27 05:26:00,
2013-01-27 00:41:00,15.5,2.0,30.22,NW,319,0.0,6.0,55,0.00,,,0.00,weatherlink.com 1.10,2013-01-27 05:41:00,
2013-01-27 00:56:00,15.5,2.0,30.23,NW,304,3.0,7.0,55,0.00,,,0.00,weatherlink.com 1.10,2013-01-27 05:56:00,
2013-01-27 01:11:00,15.6,2.0,30.23,NW,311,0.0,11.0,55,0.00,,,0.00,weatherlink.com 1.10,2013-01-27 06:11:00,
2013-01-27 01:26:00,15.5,2.0,30.24,WSW,253,0.0,6.0,55,0.00,,,0.00,weatherlink.com 1.10,2013-01-27 06:26:00,
2013-01-27 01:41:00,15.4,2.0,30.25,NNW,329,0.0,14.0,55,0.00,,,0.00,weatherlink.com 1.10,2013-01-27 06:41:00,
2013-01-27 01:56:00,15.3,2.0,30.25,NW,323,1.0,7.0,56,0.00,,,0.00,weatherlink.com 1.10,2013-01-27 06:56:00,
2013-01-27 02:26:00,15.1,2.0,30.25,NW,314,0.0,7.0,57,0.00,,,0.00,weatherlink.com 1.10,2013-01-27 07:26:00,
2013-01-27 02:41:00,14.8,2.0,30.25,NW,310,4.0,8.0,58,0.00,,,0.00,weatherlink.com 1.10,2013-01-27 07:41:00,
2013-01-27 02:56:00,14.9,2.0,30.25,NW,321,5.0,8.0,58,0.00,,,0.00,weatherlink.com 1.10,2013-01-27 07:56:00,
2013-01-27 03:11:00,15.2,3.0,30.26,NNW,335,6.0,9.0,58,0.00,,,0.00,weatherlink.com 1.10,2013-01-27 08:11:00,
2013-01-27 03:26:00,15.2,3.0,30.25,NW,321,4.0,8.0,58,0.00,,,0.00,weatherlink.com 1.10,2013-01-27 08:26:00,
2013-01-27 03:41:00,15.1,3.0,30.26,NNW,345,0.0,7.0,59,0.00,,,0.00,weatherlink.com 1.10,2013-01-27 08:41:00,
2013-01-27 03:56:00,15.2,3.0,30.26,WNW,303,0.0,12.0,59,0.00,,,0.00,weatherlink.com 1.10,2013-01-27 08:56:00,
2013-01-27 04:11:00,15.1,3.0,30.27,NW,312,0.0,6.0,59,0.00,,,0.00,weatherlink.com 1.10,2013-01-27 09:11:00,
2013-01-27 04:26:00,14.7,3.0,30.27,North,349,0.0,5.0,60,0.00,,,0.00,weatherlink.com 1.10,2013-01-27 09:26:00,
2013-01-27 04:41:00,14.5,3.0,30.27,West,273,0.0,7.0,61,0.00,,,0.00,weatherlink.com 1.10,2013-01-27 09:41:00,
2013-01-27 04:56:00,14.5,3.0,30.27,WNW,299,0.0,4.0,61,0.00,,,0.00,weatherlink.com 1.10,2013-01-27 09:56:00,
2013-01-27 05:11:00,14.5,3.0,30.28,West,274,0.0,7.0,61,0.00,,,0.00,weatherlink.com 1.10,2013-01-27 10:11:00,
2013-01-27 05:27:00,14.5,3.0,30.28,NNW,336,4.0,10.0,61,0.00,,,0.00,weatherlink.com 1.10,2013-01-27 10:27:00,
2013-01-27 05:42:00,14.5,3.0,30.29,NNW,328,0.0,4.0,61,0.00,,,0.00,weatherlink.com 1.10,2013-01-27 10:42:00,
2013-01-27 05:56:00,14.5,4.0,30.30,West,272,3.0,9.0,62,0.00,,,0.00,weatherlink.com 1.10,2013-01-27 10:56:00,
2013-01-27 06:12:00,14.5,4.0,30.30,WNW,292,2.0,9.0,62,0.00,,,0.00,weatherlink.com 1.10,2013-01-27 11:12:00,
2013-01-27 06:26:00,14.4,3.0,30.30,West,276,0.0,9.0,62,0.00,,,0.00,weatherlink.com 1.10,2013-01-27 11:26:00,
2013-01-27 06:41:00,14.3,3.0,30.31,WNW,291,2.0,7.0,62,0.00,,,0.00,weatherlink.com 1.10,2013-01-27 11:41:00,
2013-01-27 06:56:00,14.3,4.0,30.31,West,274,1.0,9.0,63,0.00,,,0.00,weatherlink.com 1.10,2013-01-27 11:56:00,
2013-01-27 07:11:00,14.5,4.0,30.31,WNW,288,2.0,13.0,62,0.00,,,0.00,weatherlink.com 1.10,2013-01-27 12:11:00,
2013-01-27 07:27:00,14.6,4.0,30.32,NW,319,5.0,7.0,63,0.00,,,0.00,weatherlink.com 1.10,2013-01-27 12:27:00,
2013-01-27 07:42:00,14.9,4.0,30.32,WSW,258,4.0,9.0,62,0.00,,,0.00,weatherlink.com 1.10,2013-01-27 12:42:00,
2013-01-27 07:57:00,15.4,4.0,30.33,North,359,0.0,8.0,62,0.00,,,0.00,weatherlink.com 1.10,2013-01-27 12:57:00,
2013-01-27 08:12:00,16.1,5.0,30.34,NW,317,2.0,11.0,61,0.00,,,0.00,weatherlink.com 1.10,2013-01-27 13:12:00,
2013-01-27 08:27:00,17.0,5.0,30.34,NNW,335,4.0,8.0,60,0.00,,,0.00,weatherlink.com 1.10,2013-01-27 13:27:00,
2013-01-27 08:42:00,17.7,5.0,30.34,NW,321,1.0,10.0,58,0.00,,,0.00,weatherlink.com 1.10,2013-01-27 13:42:00,
2013-01-27 08:57:00,18.6,5.0,30.35,NW,316,6.0,15.0,56,0.00,,,0.00,weatherlink.com 1.10,2013-01-27 13:57:00,
2013-01-27 09:12:00,19.4,6.0,30.35,NW,313,3.0,12.0,55,0.00,,,0.00,weatherlink.com 1.10,2013-01-27 14:12:00,
2013-01-27 09:27:00,20.6,5.0,30.36,WNW,290,6.0,13.0,52,0.00,,,0.00,weatherlink.com 1.10,2013-01-27 14:27:00,
2013-01-27 09:42:00,21.6,5.0,30.36,NW,316,7.0,13.0,50,0.00,,,0.00,weatherlink.com 1.10,2013-01-27 14:42:00,
2013-01-27 09:57:00,22.1,6.0,30.36,NNW,338,0.0,11.0,49,0.00,,,0.00,weatherlink.com 1.10,2013-01-27 14:57:00,
2013-01-27 10:12:00,23.0,5.0,30.36,NW,307,6.0,8.0,47,0.00,,,0.00,weatherlink.com 1.10,2013-01-27 15:12:00,
2013-01-27 10:29:00,24.4,6.0,30.37,NW,309,0.0,11.0,46,0.00,,,0.00,weatherlink.com 1.10,2013-01-27 15:29:00,
2013-01-27 10:42:00,24.9,6.0,30.36,NW,314,1.0,12.0,45,0.00,,,0.00,weatherlink.com 1.10,2013-01-27 15:42:00,
2013-01-27 11:13:00,26.5,7.0,30.36,NNW,335,6.0,14.0,43,0.00,,,0.00,weatherlink.com 1.10,2013-01-27 16:13:00,
2013-01-27 11:27:00,27.3,7.0,30.36,NW,313,7.0,11.0,42,0.00,,,0.00,weatherlink.com 1.10,2013-01-27 16:27:00,
2013-01-27 11:42:00,28.7,8.0,30.36,North,359,0.0,9.0,42,0.00,,,0.00,weatherlink.com 1.10,2013-01-27 16:42:00,
2013-01-27 11:58:00,29.4,8.0,30.36,NW,322,2.0,7.0,40,0.00,,,0.00,weatherlink.com 1.10,2013-01-27 16:58:00,
2013-01-27 12:12:00,29.6,7.0,30.36,NNW,333,0.0,9.0,38,0.00,,,0.00,weatherlink.com 1.10,2013-01-27 17:12:00,
2013-01-27 12:27:00,30.6,7.0,30.35,WSW,257,5.0,8.0,37,0.00,,,0.00,weatherlink.com 1.10,2013-01-27 17:27:00,
2013-01-27 12:43:00,30.8,7.0,30.35,NW,325,0.0,10.0,36,0.00,,,0.00,weatherlink.com 1.10,2013-01-27 17:43:00,
2013-01-27 12:58:00,31.5,7.0,30.34,NNW,330,0.0,9.0,35,0.00,,,0.00,weatherlink.com 1.10,2013-01-27 17:58:00,
2013-01-27 13:13:00,32.8,8.0,30.34,NNW,328,3.0,5.0,36,0.00,,,0.00,weatherlink.com 1.10,2013-01-27 18:13:00,
2013-01-27 13:28:00,33.5,8.0,30.34,NNW,341,2.0,5.0,34,0.00,,,0.00,weatherlink.com 1.10,2013-01-27 18:28:00,
2013-01-27 13:43:00,33.0,8.0,30.34,NW,323,0.0,6.0,35,0.00,,,0.00,weatherlink.com 1.10,2013-01-27 18:43:00,
2013-01-27 13:58:00,32.4,6.0,30.34,West,280,1.0,8.0,33,0.00,,,0.00,weatherlink.com 1.10,2013-01-27 18:58:00,
2013-01-27 14:13:00,32.8,6.0,30.34,NNW,335,0.0,10.0,33,0.00,,,0.00,weatherlink.com 1.10,2013-01-27 19:13:00,
2013-01-27 14:28:00,32.0,6.0,30.35,NNW,333,4.0,8.0,34,0.00,,,0.00,weatherlink.com 1.10,2013-01-27 19:28:00,
2013-01-27 14:43:00,31.3,6.0,30.35,WSW,251,1.0,12.0,34,0.00,,,0.00,weatherlink.com 1.10,2013-01-27 19:43:00,
2013-01-27 14:58:00,31.4,6.0,30.34,WSW,241,0.0,8.0,34,0.01,,,0.01,weatherlink.com 1.10,2013-01-27 19:58:00,
2013-01-27 15:13:00,31.3,6.0,30.35,NW,325,1.0,4.0,35,0.01,,,0.01,weatherlink.com 1.10,2013-01-27 20:13:00,
2013-01-27 15:28:00,30.8,6.0,30.35,NNW,330,1.0,9.0,35,0.01,,,0.01,weatherlink.com 1.10,2013-01-27 20:28:00,
2013-01-27 15:43:00,30.3,6.0,30.34,NW,326,0.0,6.0,36,0.01,,,0.01,weatherlink.com 1.10,2013-01-27 20:43:00,
2013-01-27 15:58:00,30.0,5.0,30.34,NW,312,0.0,4.0,35,0.00,,,0.01,weatherlink.com 1.10,2013-01-27 20:58:00,
2013-01-27 16:13:00,29.6,5.0,30.36,NNW,333,0.0,13.0,35,0.00,,,0.01,weatherlink.com 1.10,2013-01-27 21:13:00,
2013-01-27 16:28:00,29.2,5.0,30.36,NNW,327,0.0,6.0,36,0.00,,,0.01,weatherlink.com 1.10,2013-01-27 21:28:00,
2013-01-27 16:43:00,28.7,5.0,30.36,NNW,327,0.0,1.0,37,0.00,,,0.01,weatherlink.com 1.10,2013-01-27 21:43:00,
2013-01-27 16:58:00,28.0,5.0,30.37,NW,319,0.0,5.0,38,0.00,,,0.01,weatherlink.com 1.10,2013-01-27 21:58:00,
2013-01-27 17:13:00,27.6,4.0,30.38,WNW,291,0.0,6.0,37,0.00,,,0.01,weatherlink.com 1.10,2013-01-27 22:13:00,
2013-01-27 17:28:00,27.4,5.0,30.39,NW,324,0.0,1.0,39,0.00,,,0.01,weatherlink.com 1.10,2013-01-27 22:28:00,
2013-01-27 17:43:00,26.7,5.0,30.39,NNW,333,0.0,3.0,40,0.00,,,0.01,weatherlink.com 1.10,2013-01-27 22:43:00,
2013-01-27 17:58:00,26.5,5.0,30.39,NW,316,0.0,5.0,40,0.00,,,0.01,weatherlink.com 1.10,2013-01-27 22:58:00,
2013-01-27 18:13:00,26.1,5.0,30.40,NNW,337,0.0,1.0,41,0.00,,,0.01,weatherlink.com 1.10,2013-01-27 23:13:00,
2013-01-27 18:28:00,25.5,6.0,30.41,NNW,337,0.0,1.0,43,0.00,,,0.01,weatherlink.com 1.10,2013-01-27 23:28:00,
2013-01-27 18:43:00,24.7,6.0,30.41,NNW,337,0.0,0.0,45,0.00,,,0.01,weatherlink.com 1.10,2013-01-27 23:43:00,
2013-01-27 18:58:00,24.3,6.0,30.42,WNW,292,0.0,2.0,46,0.00,,,0.01,weatherlink.com 1.10,2013-01-27 23:58:00,
2013-01-27 19:13:00,24.3,6.0,30.41,North,1,0.0,5.0,45,0.00,,,0.01,weatherlink.com 1.10,2013-01-28 00:13:00,
2013-01-27 19:28:00,24.4,6.0,30.42,NW,323,1.0,4.0,45,0.00,,,0.01,weatherlink.com 1.10,2013-01-28 00:28:00,
2013-01-27 19:43:00,24.8,6.0,30.43,NW,317,1.0,3.0,44,0.00,,,0.01,weatherlink.com 1.10,2013-01-28 00:43:00,
2013-01-27 19:58:00,24.7,6.0,30.43,NNW,348,0.0,1.0,45,0.00,,,0.01,weatherlink.com 1.10,2013-01-28 00:58:00,
2013-01-27 20:13:00,24.4,6.0,30.43,NW,324,0.0,4.0,45,0.00,,,0.01,weatherlink.com 1.10,2013-01-28 01:13:00,
2013-01-27 20:28:00,24.2,6.0,30.43,WNW,286,0.0,5.0,46,0.00,,,0.01,weatherlink.com 1.10,2013-01-28 01:28:00,
2013-01-27 20:43:00,24.0,6.0,30.42,West,281,0.0,2.0,46,0.00,,,0.01,weatherlink.com 1.10,2013-01-28 01:43:00,
2013-01-27 20:58:00,23.4,6.0,30.42,West,281,0.0,1.0,47,0.00,,,0.01,weatherlink.com 1.10,2013-01-28 01:58:00,
2013-01-27 21:13:00,23.1,6.0,30.43,WNW,283,1.0,1.0,47,0.00,,,0.01,weatherlink.com 1.10,2013-01-28 02:13:00,
2013-01-27 21:28:00,23.0,5.0,30.43,WNW,282,0.0,2.0,47,0.00,,,0.01,weatherlink.com 1.10,2013-01-28 02:28:00,
2013-01-27 21:43:00,22.7,6.0,30.43,WNW,282,0.0,2.0,48,0.00,,,0.01,weatherlink.com 1.10,2013-01-28 02:43:00,
2013-01-27 21:58:00,21.8,6.0,30.43,WNW,282,0.0,0.0,50,0.00,,,0.01,weatherlink.com 1.10,2013-01-28 02:58:00,
2013-01-27 22:13:00,20.6,6.0,30.43,WNW,282,0.0,1.0,53,0.00,,,0.01,weatherlink.com 1.10,2013-01-28 03:13:00,
2013-01-27 22:28:00,19.9,6.0,30.44,WNW,282,0.0,1.0,55,0.00,,,0.01,weatherlink.com 1.10,2013-01-28 03:28:00,
2013-01-27 22:43:00,20.3,6.0,30.44,WNW,282,0.0,1.0,53,0.00,,,0.01,weatherlink.com 1.10,2013-01-28 03:43:00,
2013-01-27 22:58:00,19.7,6.0,30.44,WNW,282,0.0,0.0,56,0.00,,,0.01,weatherlink.com 1.10,2013-01-28 03:58:00,
2013-01-27 23:13:00,19.4,6.0,30.44,WNW,282,0.0,0.0,57,0.00,,,0.01,weatherlink.com 1.10,2013-01-28 04:13:00,
2013-01-27 23:28:00,20.2,5.0,30.44,WNW,295,0.0,2.0,53,0.00,,,0.01,weatherlink.com 1.10,2013-01-28 04:28:00,
2013-01-27 23:43:00,21.5,5.0,30.43,NW,308,0.0,5.0,50,0.00,,,0.01,weatherlink.com 1.10,2013-01-28 04:43:00,
2013-01-27 23:58:00,22.1,5.0,30.44,WSW,250,0.0,2.0,47,0.00,,,0.01,weatherlink.com 1.10,2013-01-28 04:58:00,